Black Brook, Wisconsin
Current Conditions -  °F | °C
As of 3:55 AM on Sunday 23 Nov 2014 (Local Time) from KRNH Reporting Station
Haze Haze  
Wind Chill:   Ceiling: 800
Heat Index:   Visibility: 1.2mi
Dew Point:   Wind: 8mph
Humidity: 100%   Direction: 190°S
Pressure: 29.45"   Gusts: NA
Location:  45.2417°N, 92.2543°W
Report Text: KRNH 230955Z AUTO 19007KT 1 1/4SM BR OVC008 07/07 A2945 RMK AO2 T00670067
Loading
Personal Weather Stations






























Interactive Weather Map New forecast layout! Learn more

10-Day Weather Forecast

Advertisements
Track Severe Weather on mobile